FYWH/WDH METAR and TAF weather

Enter ICAO airport designator
Station Type Date Time Source
FYWH METAR 2018/04/21 11:00 UTC NOAA

FYWH 211100Z 30003KT CAVOK 25/M04 Q1026


Station Type Date Time Source
FYWH Decoded METAR 2018/04/21 11:00 UTC NOAA

J. G. Strijdom, Namibia (FYWH) 22-29S 017-28E 1700M
Apr 21, 2018 - 07:00 AM EDT / 2018.04.21 1100 UTC
Wind: from the WNW (300 degrees) at 3 MPH (3 KT):0
Visibility: greater than 7 mile(s):0
Temperature: 77 F (25 C)
Dew Point: 24 F (-4 C)
Relative Humidity: 14%
Pressure (altimeter): 30.30 in. Hg (1026 hPa)
ob: FYWH 211100Z 30003KT CAVOK 25/M04 Q1026
cycle: 11

Station Type Date Time Source
FYWH TAF 2018/04/21 12:21 UTC NOAA

TAF FYWH 211000Z 2112/2212 30008KT CAVOK


Example: see airport list